Buoy 46930

sailwx.info

Track history (hours):
 
Tides and Currents Weather Stations Pressure Air Temp Water Temp Dewpoint Dewpoint Depression Visibility Wind Speed Wind Dir Waves Ship Positions

Drifting buoy 46930

Last reported at 2014-Dec-18 18:00 UTC. Time now 2014-Dec-18 20:59 UTC.
Position N 20°17' W 118°36'.

Water temperature 24.0 ° C

Date/timePositionNaut miles runAvg speedWind from/ knotsBaromVisibWave heightAir tempDewpointWater temp
2014-Dec-18 18:00N 20°17' W 118°36'1 0.9 24.0
2014-Dec-18 17:00N 20°16' W 118°36'1 1.3 23.9
2014-Dec-18 16:00N 20°15' W 118°36'0 0.0 24.0
2014-Dec-18 15:00N 20°15' W 118°36'0 0.5 24.1
2014-Dec-18 14:00N 20°14' W 118°36'2 1.7 24.2
2014-Dec-18 13:00N 20°13' W 118°37'0 0.3 24.3
2014-Dec-18 12:00N 20°12' W 118°37'0 0.4 24.0
2014-Dec-18 11:00N 20°12' W 118°37'3 0.6 23.9
2014-Dec-18 06:00N 20°09' W 118°37'0 0.3 24.1
2014-Dec-18 05:00N 20°10' W 118°37'1 0.7 24.2
2014-Dec-18 04:00N 20°09' W 118°37'0 0.0 24.3
2014-Dec-18 03:00N 20°09' W 118°37'1 0.3 23.9
2014-Dec-18 00:00N 20°08' W 118°38'1 1.1 24.0
2014-Dec-17 23:00N 20°07' W 118°37'1 0.2 24.0
2014-Dec-17 18:00N 20°06' W 118°38'1 0.8 23.9
2014-Dec-17 17:00N 20°06' W 118°38'1 1.4 23.9
2014-Dec-17 16:00N 20°05' W 118°38'0 0.0 23.9
2014-Dec-17 14:00N 20°05' W 118°38'0 0.3 23.9
2014-Dec-17 13:00N 20°04' W 118°38'0 0.3 23.9
2014-Dec-17 12:00N 20°04' W 118°39'1 0.3 23.9
2014-Dec-17 09:00N 20°03' W 118°39'2 0.6 23.9
2014-Dec-17 06:00N 20°02' W 118°40'0 0.2 24.0
2014-Dec-17 04:00N 20°02' W 118°40'1 1.3 24.0
2014-Dec-17 03:00N 20°01' W 118°41'0 0.4 24.0
2014-Dec-17 02:00N 20°00' W 118°41'0 0.0 24.0
2014-Dec-17 01:00N 20°00' W 118°41'1 1.2 24.0
2014-Dec-17 00:00N 19°60' W 118°42'0 0.2 24.1
2014-Dec-16 23:00N 19°60' W 118°42'2 0.9 24.1
2014-Dec-16 21:00N 19°59' W 118°43'1 1.4 24.1
2014-Dec-16 20:00N 19°58' W 118°42'0 0.3 24.1
2014-Dec-16 19:00N 19°57' W 118°42'0 0.0 24.1
2014-Dec-16 18:00N 19°57' W 118°42'0 0.0 24.0
2014-Dec-16 17:00N 19°57' W 118°42'7 0.4 24.0
2014-Dec-15 23:00N 19°50' W 118°44'1 0.6 24.4
2014-Dec-15 22:00N 19°50' W 118°44'1 1.3 24.3
2014-Dec-15 21:00N 19°49' W 118°45'0 0.0 24.4
2014-Dec-15 19:00N 19°49' W 118°45'1 0.6 24.2
2014-Dec-15 18:00N 19°48' W 118°45'1 1.1 24.2
2014-Dec-15 17:00N 19°48' W 118°46'1 0.6 24.2
2014-Dec-15 15:00N 19°47' W 118°46'1 0.7 24.2
2014-Dec-15 13:00N 19°46' W 118°47'1 0.6 24.2
2014-Dec-15 12:00N 19°45' W 118°47'0 0.0 24.2
2014-Dec-15 11:00N 19°45' W 118°47'1 0.6 24.2
2014-Dec-15 10:00N 19°44' W 118°47'1 0.6 24.2
2014-Dec-15 09:00N 19°44' W 118°47'0 0.0 24.2
2014-Dec-15 08:00N 19°44' W 118°47'2 0.9 24.2
2014-Dec-15 06:00N 19°42' W 118°46'0 0.0 24.3
2014-Dec-15 05:00N 19°42' W 118°46'0 0.0 24.3
2014-Dec-15 04:00N 19°42' W 118°46'1 0.8 24.3
2014-Dec-15 03:00N 19°41' W 118°46'1 0.6 24.3
2014-Dec-15 02:00N 19°41' W 118°46'1 0.6 24.4
2014-Dec-15 01:00N 19°42' W 118°46'1 0.3 24.4
2014-Dec-14 23:00N 19°41' W 118°46'1 0.8 24.5
2014-Dec-14 22:00N 19°41' W 118°46'1 0.8 24.5
2014-Dec-14 21:00N 19°40' W 118°46'0 0.0 24.5
2014-Dec-14 20:00N 19°40' W 118°46'0 0.0 24.5
2014-Dec-14 18:00N 19°40' W 118°46'1 0.6 24.3
2014-Dec-14 17:00N 19°40' W 118°47'1 0.8 24.3
2014-Dec-14 16:00N 19°40' W 118°46'1 0.3 24.3
2014-Dec-14 14:00N 19°40' W 118°47'0 0.0 24.3
2014-Dec-14 13:00N 19°40' W 118°47'0 0.0 24.3
2014-Dec-14 12:00N 19°40' W 118°47'0 0.0 24.3
2014-Dec-14 11:00N 19°40' W 118°47'0 0.0 24.3
2014-Dec-14 10:00N 19°40' W 118°47'1 0.8 24.3
2014-Dec-14 09:00N 19°39' W 118°47'0 0.0 24.3
2014-Dec-14 08:00N 19°39' W 118°47'2 0.6 24.3
2014-Dec-14 05:00N 19°37' W 118°47'1 0.6 24.4
2014-Dec-14 04:00N 19°37' W 118°47'0 0.0 24.4
2014-Dec-14 03:00N 19°37' W 118°47'0 0.1 24.4
2014-Dec-14 00:00N 19°37' W 118°47'1 0.7 24.5
2014-Dec-13 23:00N 19°37' W 118°46'3 0.1 24.5
2014-Dec-12 22:00N 19°36' W 118°49'0 0.1 24.7
2014-Dec-12 20:00N 19°36' W 118°48'0 0.1 24.7
2014-Dec-12 18:00N 19°35' W 118°48'1 0.1 24.4
2014-Dec-12 12:00N 19°36' W 118°48'2 0.2 24.3
2014-Dec-12 04:00N 19°35' W 118°50'0 0.5 24.4
2014-Dec-12 03:00N 19°35' W 118°50'0 0.0 24.4
2014-Dec-12 02:00N 19°35' W 118°50'1 1.3 24.5
2014-Dec-12 01:00N 19°35' W 118°48'1 1.0 24.5
2014-Dec-12 00:00N 19°35' W 118°49'1 0.9 24.6
2014-Dec-11 23:00N 19°34' W 118°50'0 0.4 24.6
2014-Dec-11 22:00N 19°34' W 118°51'1 0.2 24.6
2014-Dec-11 18:00N 19°34' W 118°51'1 0.4 24.3
2014-Dec-11 15:00N 19°32' W 118°51'0 0.2 24.3
2014-Dec-11 13:00N 19°32' W 118°50'0 0.3 24.3
2014-Dec-11 12:00N 19°32' W 118°50'0 0.3 24.3
2014-Dec-11 11:00N 19°32' W 118°50'0 0.1 24.3
2014-Dec-11 10:00N 19°32' W 118°50'1 0.2 24.3
2014-Dec-11 06:00N 19°31' W 118°49'1 0.7 24.4
2014-Dec-11 05:00N 19°31' W 118°50'1 0.3 24.4
2014-Dec-11 03:00N 19°31' W 118°49'0 0.1 24.4
2014-Dec-10 23:00N 19°31' W 118°49'0 0.1 24.5
2014-Dec-10 22:00N 19°31' W 118°49'0 0.1 24.5
2014-Dec-10 20:00N 19°32' W 118°49'0 0.1 24.5
2014-Dec-10 18:00N 19°32' W 118°49'0 0.2 24.4
2014-Dec-10 17:00N 19°32' W 118°49'1 0.2 24.4
2014-Dec-10 14:00N 19°32' W 118°50'0 0.2 24.3
2014-Dec-10 13:00N 19°32' W 118°50'0 0.1 24.4
2014-Dec-10 11:00N 19°32' W 118°50'2 0.3 24.4
2014-Dec-10 06:00N 19°30' W 118°51'1 0.6 24.4
2014-Dec-10 05:00N 19°30' W 118°51'1 0.3 24.4
2014-Dec-10 00:00N 19°29' W 118°50'1 0.3 24.5
2014-Dec-09 21:00N 19°29' W 118°50'0 0.5 24.5
2014-Dec-09 20:00N 19°29' W 118°49'0 0.2 24.5
2014-Dec-09 18:00N 19°29' W 118°49'0 0.5 24.5
2014-Dec-09 17:00N 19°29' W 118°48'0 0.0 24.5
2014-Dec-09 16:00N 19°29' W 118°48'0 0.1 24.5
2014-Dec-09 14:00N 19°29' W 118°49'1 0.7 24.5
2014-Dec-09 13:00N 19°29' W 118°48'1 0.3 24.5
2014-Dec-09 11:00N 19°29' W 118°48'1 0.1 24.5
2014-Dec-09 05:00N 19°30' W 118°48'0 0.4 24.6
2014-Dec-09 04:00N 19°30' W 118°48'0 0.0 24.6
2014-Dec-09 03:00N 19°30' W 118°48'0 0.0 24.6
2014-Dec-09 02:00N 19°30' W 118°48'1 0.5 24.6
2014-Dec-09 00:00N 19°30' W 118°49'   24.6
Track history (hours):
 
Tides and Currents Weather Stations Pressure Air Temp Water Temp Dewpoint Dewpoint Depression Visibility Wind Speed Wind Dir Waves Ship Positions

Drifting buoy 46930

Last reported at 2014-Dec-18 18:00 UTC. Time now 2014-Dec-18 20:59 UTC.
Position N 20°17' W 118°36'.

Water temperature 24.0 ° C

Date/timePositionNaut miles runAvg speedWind from/ knotsBaromVisibWave heightAir tempDewpointWater temp
2014-Dec-18 18:00N 20°17' W 118°36'1 0.9 24.0
2014-Dec-18 17:00N 20°16' W 118°36'1 1.3 23.9
2014-Dec-18 16:00N 20°15' W 118°36'0 0.0 24.0
2014-Dec-18 15:00N 20°15' W 118°36'0 0.5 24.1
2014-Dec-18 14:00N 20°14' W 118°36'2 1.7 24.2
2014-Dec-18 13:00N 20°13' W 118°37'0 0.3 24.3
2014-Dec-18 12:00N 20°12' W 118°37'0 0.4 24.0
2014-Dec-18 11:00N 20°12' W 118°37'3 0.6 23.9
2014-Dec-18 06:00N 20°09' W 118°37'0 0.3 24.1
2014-Dec-18 05:00N 20°10' W 118°37'1 0.7 24.2
2014-Dec-18 04:00N 20°09' W 118°37'0 0.0 24.3
2014-Dec-18 03:00N 20°09' W 118°37'1 0.3 23.9
2014-Dec-18 00:00N 20°08' W 118°38'1 1.1 24.0
2014-Dec-17 23:00N 20°07' W 118°37'1 0.2 24.0
2014-Dec-17 18:00N 20°06' W 118°38'1 0.8 23.9
2014-Dec-17 17:00N 20°06' W 118°38'1 1.4 23.9
2014-Dec-17 16:00N 20°05' W 118°38'0 0.0 23.9
2014-Dec-17 14:00N 20°05' W 118°38'0 0.3 23.9
2014-Dec-17 13:00N 20°04' W 118°38'0 0.3 23.9
2014-Dec-17 12:00N 20°04' W 118°39'1 0.3 23.9
2014-Dec-17 09:00N 20°03' W 118°39'2 0.6 23.9
2014-Dec-17 06:00N 20°02' W 118°40'0 0.2 24.0
2014-Dec-17 04:00N 20°02' W 118°40'1 1.3 24.0
2014-Dec-17 03:00N 20°01' W 118°41'0 0.4 24.0
2014-Dec-17 02:00N 20°00' W 118°41'0 0.0 24.0
2014-Dec-17 01:00N 20°00' W 118°41'1 1.2 24.0
2014-Dec-17 00:00N 19°60' W 118°42'0 0.2 24.1
2014-Dec-16 23:00N 19°60' W 118°42'2 0.9 24.1
2014-Dec-16 21:00N 19°59' W 118°43'1 1.4 24.1
2014-Dec-16 20:00N 19°58' W 118°42'0 0.3 24.1
2014-Dec-16 19:00N 19°57' W 118°42'0 0.0 24.1
2014-Dec-16 18:00N 19°57' W 118°42'0 0.0 24.0
2014-Dec-16 17:00N 19°57' W 118°42'7 0.4 24.0
2014-Dec-15 23:00N 19°50' W 118°44'1 0.6 24.4
2014-Dec-15 22:00N 19°50' W 118°44'1 1.3 24.3
2014-Dec-15 21:00N 19°49' W 118°45'0 0.0 24.4
2014-Dec-15 19:00N 19°49' W 118°45'1 0.6 24.2
2014-Dec-15 18:00N 19°48' W 118°45'1 1.1 24.2
2014-Dec-15 17:00N 19°48' W 118°46'1 0.6 24.2
2014-Dec-15 15:00N 19°47' W 118°46'1 0.7 24.2
2014-Dec-15 13:00N 19°46' W 118°47'1 0.6 24.2
2014-Dec-15 12:00N 19°45' W 118°47'0 0.0 24.2
2014-Dec-15 11:00N 19°45' W 118°47'1 0.6 24.2
2014-Dec-15 10:00N 19°44' W 118°47'1 0.6 24.2
2014-Dec-15 09:00N 19°44' W 118°47'0 0.0 24.2
2014-Dec-15 08:00N 19°44' W 118°47'2 0.9 24.2
2014-Dec-15 06:00N 19°42' W 118°46'0 0.0 24.3
2014-Dec-15 05:00N 19°42' W 118°46'0 0.0 24.3
2014-Dec-15 04:00N 19°42' W 118°46'1 0.8 24.3
2014-Dec-15 03:00N 19°41' W 118°46'1 0.6 24.3
2014-Dec-15 02:00N 19°41' W 118°46'1 0.6 24.4
2014-Dec-15 01:00N 19°42' W 118°46'1 0.3 24.4
2014-Dec-14 23:00N 19°41' W 118°46'1 0.8 24.5
2014-Dec-14 22:00N 19°41' W 118°46'1 0.8 24.5
2014-Dec-14 21:00N 19°40' W 118°46'0 0.0 24.5
2014-Dec-14 20:00N 19°40' W 118°46'0 0.0 24.5
2014-Dec-14 18:00N 19°40' W 118°46'1 0.6 24.3
2014-Dec-14 17:00N 19°40' W 118°47'1 0.8 24.3
2014-Dec-14 16:00N 19°40' W 118°46'1 0.3 24.3
2014-Dec-14 14:00N 19°40' W 118°47'0 0.0 24.3
2014-Dec-14 13:00N 19°40' W 118°47'0 0.0 24.3
2014-Dec-14 12:00N 19°40' W 118°47'0 0.0 24.3
2014-Dec-14 11:00N 19°40' W 118°47'0 0.0 24.3
2014-Dec-14 10:00N 19°40' W 118°47'1 0.8 24.3
2014-Dec-14 09:00N 19°39' W 118°47'0 0.0 24.3
2014-Dec-14 08:00N 19°39' W 118°47'2 0.6 24.3
2014-Dec-14 05:00N 19°37' W 118°47'1 0.6 24.4
2014-Dec-14 04:00N 19°37' W 118°47'0 0.0 24.4
2014-Dec-14 03:00N 19°37' W 118°47'0 0.1 24.4
2014-Dec-14 00:00N 19°37' W 118°47'1 0.7 24.5
2014-Dec-13 23:00N 19°37' W 118°46'3 0.1 24.5
2014-Dec-12 22:00N 19°36' W 118°49'0 0.1 24.7
2014-Dec-12 20:00N 19°36' W 118°48'0 0.1 24.7
2014-Dec-12 18:00N 19°35' W 118°48'1 0.1 24.4
2014-Dec-12 12:00N 19°36' W 118°48'2 0.2 24.3
2014-Dec-12 04:00N 19°35' W 118°50'0 0.5 24.4
2014-Dec-12 03:00N 19°35' W 118°50'0 0.0 24.4
2014-Dec-12 02:00N 19°35' W 118°50'1 1.3 24.5
2014-Dec-12 01:00N 19°35' W 118°48'1 1.0 24.5
2014-Dec-12 00:00N 19°35' W 118°49'1 0.9 24.6
2014-Dec-11 23:00N 19°34' W 118°50'0 0.4 24.6
2014-Dec-11 22:00N 19°34' W 118°51'1 0.2 24.6
2014-Dec-11 18:00N 19°34' W 118°51'1 0.4 24.3
2014-Dec-11 15:00N 19°32' W 118°51'0 0.2 24.3
2014-Dec-11 13:00N 19°32' W 118°50'0 0.3 24.3
2014-Dec-11 12:00N 19°32' W 118°50'0 0.3 24.3
2014-Dec-11 11:00N 19°32' W 118°50'0 0.1 24.3
2014-Dec-11 10:00N 19°32' W 118°50'1 0.2 24.3
2014-Dec-11 06:00N 19°31' W 118°49'1 0.7 24.4
2014-Dec-11 05:00N 19°31' W 118°50'1 0.3 24.4
2014-Dec-11 03:00N 19°31' W 118°49'0 0.1 24.4
2014-Dec-10 23:00N 19°31' W 118°49'0 0.1 24.5
2014-Dec-10 22:00N 19°31' W 118°49'0 0.1 24.5
2014-Dec-10 20:00N 19°32' W 118°49'0 0.1 24.5
2014-Dec-10 18:00N 19°32' W 118°49'0 0.2 24.4
2014-Dec-10 17:00N 19°32' W 118°49'1 0.2 24.4
2014-Dec-10 14:00N 19°32' W 118°50'0 0.2 24.3
2014-Dec-10 13:00N 19°32' W 118°50'0 0.1 24.4
2014-Dec-10 11:00N 19°32' W 118°50'2 0.3 24.4
2014-Dec-10 06:00N 19°30' W 118°51'1 0.6 24.4
2014-Dec-10 05:00N 19°30' W 118°51'1 0.3 24.4
2014-Dec-10 00:00N 19°29' W 118°50'1 0.3 24.5
2014-Dec-09 21:00N 19°29' W 118°50'0 0.5 24.5
2014-Dec-09 20:00N 19°29' W 118°49'0 0.2 24.5
2014-Dec-09 18:00N 19°29' W 118°49'0 0.5 24.5
2014-Dec-09 17:00N 19°29' W 118°48'0 0.0 24.5
2014-Dec-09 16:00N 19°29' W 118°48'0 0.1 24.5
2014-Dec-09 14:00N 19°29' W 118°49'1 0.7 24.5
2014-Dec-09 13:00N 19°29' W 118°48'1 0.3 24.5
2014-Dec-09 11:00N 19°29' W 118°48'1 0.1 24.5
2014-Dec-09 05:00N 19°30' W 118°48'0 0.4 24.6
2014-Dec-09 04:00N 19°30' W 118°48'0 0.0 24.6
2014-Dec-09 03:00N 19°30' W 118°48'0 0.0 24.6
2014-Dec-09 02:00N 19°30' W 118°48'1 0.5 24.6
2014-Dec-09 00:00N 19°30' W 118°49'   24.6

Dump ship's entire track history